Time;durP1;ratioP1;P1;durP2;ratioP2;P2;SDS_P1;SDS_P2;PMS_P1;PMS_P2;Temp;Humidity;BMP_temperature;BMP_pressure;BME280_temperature;BME280_humidity;BME280_pressure;Samples;Min_cycle;Max_cycle;Signal;HPM_P1;HPM_P2
2021/08/07 00:01:16;;;;;;;8.38;7.57;;;;;;;15.99;100.00;99797.50;4960424;28;20222;-72
2021/08/07 00:03:42;;;;;;;8.10;7.38;;;;;;;15.97;100.00;99794.31;4952231;29;20307;-71
2021/08/07 00:06:09;;;;;;;9.45;7.28;;;;;;;16.03;100.00;99790.25;4951593;28;20223;-71
2021/08/07 00:08:37;;;;;;;8.98;8.00;;;;;;;16.12;100.00;99793.75;4936438;29;20219;-72
2021/08/07 00:11:08;;;;;;;8.55;7.75;;;;;;;16.17;100.00;99785.31;4961007;28;20223;-72
2021/08/07 00:13:33;;;;;;;9.93;8.35;;;;;;;16.24;100.00;99791.13;4956741;29;20219;-72
2021/08/07 00:16:01;;;;;;;9.18;7.93;;;;;;;16.12;100.00;99782.78;4953281;28;20306;-72
2021/08/07 00:18:30;;;;;;;11.63;7.73;;;;;;;16.02;100.00;99783.13;4948667;29;20184;-71
2021/08/07 00:20:55;;;;;;;8.60;7.78;;;;;;;16.02;100.00;99787.81;4935589;29;20218;-71
2021/08/07 00:23:21;;;;;;;8.68;7.82;;;;;;;16.05;100.00;99789.91;4952175;28;20175;-71
2021/08/07 00:25:49;;;;;;;9.02;8.10;;;;;;;15.95;100.00;99793.81;4951880;28;20716;-71
2021/08/07 00:28:15;;;;;;;8.90;8.00;;;;;;;15.85;100.00;99794.16;4951720;29;20211;-72
2021/08/07 00:30:43;;;;;;;9.60;8.15;;;;;;;15.86;100.00;99793.06;4951101;28;20853;-71
2021/08/07 00:33:09;;;;;;;8.55;7.75;;;;;;;15.83;100.00;99801.91;4935828;29;20563;-71
2021/08/07 00:35:35;;;;;;;8.80;7.83;;;;;;;15.82;100.00;99794.00;4951092;28;20223;-71
2021/08/07 00:38:03;;;;;;;11.07;8.18;;;;;;;15.90;100.00;99794.00;4951661;28;20661;-72
2021/08/07 00:40:35;;;;;;;9.55;8.55;;;;;;;15.81;100.00;99790.47;4952343;28;20226;-71
2021/08/07 00:43:07;;;;;;;8.95;8.00;;;;;;;15.77;100.00;99795.00;4921094;29;20238;-71
2021/08/07 00:45:40;;;;;;;8.90;7.95;;;;;;;15.86;100.00;99787.56;4920785;28;20229;-73
2021/08/07 00:48:10;;;;;;;9.18;7.18;;;;;;;15.80;100.00;99797.09;4935675;29;20297;-71
2021/08/07 00:51:02;;;;;;;9.73;8.23;;;;;;;15.86;100.00;99795.78;4950891;28;20265;-71
2021/08/07 00:53:28;;;;;;;9.83;8.63;;;;;;;15.89;100.00;99795.13;4936202;29;20206;-72
2021/08/07 00:56:03;;;;;;;9.43;8.03;;;;;;;15.92;100.00;99799.94;4951184;29;20215;-71
2021/08/07 00:58:35;;;;;;;9.75;7.78;;;;;;;15.96;100.00;99792.69;4935661;29;20191;-71
2021/08/07 01:01:09;;;;;;;7.03;6.40;;;;;;;15.88;100.00;99793.53;4951098;28;20269;-71
2021/08/07 01:03:50;;;;;;;7.00;6.40;;;;;;;15.82;100.00;99786.63;4906431;29;20189;-72
2021/08/07 01:06:50;;;;;;;6.63;5.97;;;;;;;15.86;100.00;99790.31;4924904;29;20281;-70
2021/08/07 01:09:29;;;;;;;5.87;4.90;;;;;;;15.96;100.00;99789.94;4954634;29;20214;-72
2021/08/07 01:12:16;;;;;;;7.33;6.10;;;;;;;15.88;100.00;99779.03;4943560;29;20214;-71
2021/08/07 01:14:43;;;;;;;9.07;6.43;;;;;;;15.72;100.00;99785.38;4940164;29;20727;-71
2021/08/07 01:17:12;;;;;;;7.53;6.80;;;;;;;15.74;100.00;99792.13;4954463;28;20218;-71
2021/08/07 01:19:53;;;;;;;6.70;6.10;;;;;;;15.72;100.00;99782.63;4923237;28;20596;-72
2021/08/07 01:22:21;;;;;;;7.93;6.00;;;;;;;15.59;100.00;99787.16;4954806;28;20239;-72
2021/08/07 01:24:58;;;;;;;7.10;6.40;;;;;;;15.65;100.00;99782.31;4954954;29;20702;-71
2021/08/07 01:27:29;;;;;;;7.70;6.90;;;;;;;15.68;100.00;99793.44;4954375;29;20219;-74
2021/08/07 01:30:23;;;;;;;7.57;6.00;;;;;;;15.57;100.00;99788.63;4941058;28;20250;-71
2021/08/07 01:32:50;;;;;;;7.30;6.07;;;;;;;15.61;100.00;99784.91;4933256;28;20645;-72
2021/08/07 01:35:19;;;;;;;6.80;6.20;;;;;;;15.50;100.00;99780.91;4938932;28;20274;-72
2021/08/07 01:37:49;;;;;;;7.40;6.60;;;;;;;15.55;100.00;99790.91;4955005;28;20190;-71
2021/08/07 01:40:31;;;;;;;7.40;6.70;;;;;;;15.70;100.00;99790.38;4940316;29;20281;-72
2021/08/07 01:43:10;;;;;;;6.80;6.10;;;;;;;15.64;100.00;99783.44;4958083;28;20287;-71
2021/08/07 01:45:44;;;;;;;8.17;6.40;;;;;;;15.52;100.00;99795.06;4954430;28;20747;-71
2021/08/07 01:48:23;;;;;;;7.70;6.70;;;;;;;15.42;100.00;99795.41;4954594;28;20571;-71
2021/08/07 01:51:17;;;;;;;7.90;7.10;;;;;;;15.43;100.00;99802.47;4938883;29;20321;-71
2021/08/07 01:53:49;;;;;;;9.17;7.07;;;;;;;15.21;100.00;99782.72;4957554;28;20211;-71
2021/08/07 01:56:28;;;;;;;7.30;5.87;;;;;;;15.14;100.00;99776.91;4937817;29;20261;-70
2021/08/07 01:59:05;;;;;;;5.67;5.20;;;;;;;15.23;100.00;99780.47;4953346;29;20218;-71
2021/08/07 02:01:36;;;;;;;9.07;7.03;;;;;;;15.39;100.00;99787.84;4939709;28;20612;-70
2021/08/07 02:04:05;;;;;;;8.00;7.20;;;;;;;15.46;100.00;99779.94;4937635;28;20183;-72
2021/08/07 02:06:38;;;;;;;8.30;7.43;;;;;;;15.53;100.00;99780.25;4953589;29;20223;-72
2021/08/07 02:09:04;;;;;;;6.93;6.23;;;;;;;15.53;100.00;99779.44;4952044;28;20218;-71
2021/08/07 02:11:44;;;;;;;7.70;6.40;;;;;;;15.47;100.00;99773.31;4953760;29;20222;-71
2021/08/07 02:14:14;;;;;;;7.67;6.73;;;;;;;15.36;100.00;99779.47;4953171;28;20187;-71
2021/08/07 02:16:41;;;;;;;10.13;7.00;;;;;;;15.29;100.00;99772.88;4953415;28;20733;-73
2021/08/07 02:19:16;;;;;;;7.43;6.73;;;;;;;15.31;100.00;99774.19;4951899;28;20199;-71
2021/08/07 02:21:47;;;;;;;7.80;6.93;;;;;;;15.27;100.00;99770.47;4954039;28;20241;-71
2021/08/07 02:24:14;;;;;;;8.40;6.77;;;;;;;15.12;100.00;99773.69;4967233;28;20191;-71
2021/08/07 02:26:47;;;;;;;7.40;6.67;;;;;;;15.24;100.00;99771.13;4938983;28;20222;-71
2021/08/07 02:29:16;;;;;;;7.77;7.07;;;;;;;15.27;100.00;99778.69;4947641;28;20216;-72
2021/08/07 02:31:56;;;;;;;7.40;6.70;;;;;;;15.27;100.00;99773.19;4964655;28;20231;-72
2021/08/07 02:34:25;;;;;;;7.82;7.10;;;;;;;15.29;100.00;99778.34;4955277;28;20187;-71
2021/08/07 02:36:57;;;;;;;7.93;6.30;;;;;;;15.25;100.00;99767.25;4953631;28;20237;-72
2021/08/07 02:39:31;;;;;;;7.03;6.40;;;;;;;15.04;100.00;99763.56;4953783;28;20202;-71
2021/08/07 02:41:56;;;;;;;6.10;5.50;;;;;;;15.07;100.00;99760.19;4953016;28;20238;-71
2021/08/07 02:44:24;;;;;;;6.33;5.50;;;;;;;15.00;100.00;99751.66;4937508;29;20194;-72
2021/08/07 02:46:52;;;;;;;6.53;5.73;;;;;;;14.94;100.00;99762.25;4921708;28;20230;-71
2021/08/07 02:49:19;;;;;;;7.00;6.30;;;;;;;15.04;100.00;99766.28;4932919;28;20215;-71
2021/08/07 02:51:49;;;;;;;6.77;6.17;;;;;;;15.19;100.00;99754.88;4939844;29;20226;-72
2021/08/07 02:54:20;;;;;;;6.30;5.70;;;;;;;15.23;100.00;99755.03;4954520;29;20194;-71
2021/08/07 02:56:48;;;;;;;5.57;5.00;;;;;;;15.18;100.00;99758.75;4943744;29;20229;-72
2021/08/07 02:59:14;;;;;;;5.93;5.43;;;;;;;15.17;100.00;99757.13;4957900;29;20262;-74
2021/08/07 03:01:40;;;;;;;5.57;5.13;;;;;;;15.11;100.00;99755.66;4942834;28;20346;-71
2021/08/07 03:04:11;;;;;;;6.20;5.60;;;;;;;15.05;100.00;99756.97;4975007;28;20290;-72
2021/08/07 03:06:39;;;;;;;6.03;5.43;;;;;;;15.14;100.00;99763.25;4955895;28;20261;-72
2021/08/07 03:09:05;;;;;;;6.73;4.93;;;;;;;15.11;100.00;99761.13;4952397;29;20214;-72
2021/08/07 03:11:39;;;;;;;5.07;4.57;;;;;;;14.93;100.00;99763.41;4936916;29;20229;-71
2021/08/07 03:14:06;;;;;;;6.77;5.50;;;;;;;15.00;100.00;99768.06;4952830;29;20194;-71
2021/08/07 03:16:41;;;;;;;5.77;5.17;;;;;;;15.14;100.00;99765.97;4937817;28;20231;-72
2021/08/07 03:19:11;;;;;;;6.20;5.63;;;;;;;14.94;100.00;99768.53;4938039;28;20221;-72
2021/08/07 03:21:37;;;;;;;6.03;5.43;;;;;;;14.90;100.00;99770.31;4936358;29;20295;-71
2021/08/07 03:24:05;;;;;;;5.47;4.97;;;;;;;14.86;100.00;99763.09;4934036;29;20227;-71
2021/08/07 03:26:36;;;;;;;6.47;5.00;;;;;;;14.90;100.00;99758.56;4965075;28;20695;-71
2021/08/07 03:29:11;;;;;;;7.33;5.63;;;;;;;14.85;100.00;99761.47;4956447;28;20216;-71
2021/08/07 03:31:37;;;;;;;5.70;5.10;;;;;;;14.90;100.00;99761.31;4952215;28;20231;-71
2021/08/07 03:34:03;;;;;;;5.23;4.73;;;;;;;14.75;100.00;99761.78;4924273;28;20205;-72
2021/08/07 03:36:34;;;;;;;6.87;5.50;;;;;;;14.73;100.00;99769.50;4941413;28;20226;-72
2021/08/07 03:39:04;;;;;;;5.90;5.30;;;;;;;14.80;100.00;99762.44;4946680;29;20196;-71
2021/08/07 03:41:33;;;;;;;6.50;5.90;;;;;;;14.76;100.00;99763.38;4918429;28;20220;-71
2021/08/07 03:44:01;;;;;;;7.57;6.27;;;;;;;14.72;100.00;99763.25;4968690;28;20183;-71
2021/08/07 03:46:30;;;;;;;6.97;6.27;;;;;;;14.84;100.00;99757.94;4936449;29;20705;-71
2021/08/07 03:48:58;;;;;;;6.70;5.90;;;;;;;14.88;100.00;99755.34;4951624;28;20203;-71
2021/08/07 03:51:25;;;;;;;6.00;5.40;;;;;;;14.91;100.00;99758.25;4952088;28;20700;-72
2021/08/07 03:53:51;;;;;;;6.03;5.20;;;;;;;14.84;100.00;99768.06;4952622;28;20279;-72
2021/08/07 03:56:25;;;;;;;6.40;5.77;;;;;;;14.78;100.00;99772.06;4938038;28;20230;-72
2021/08/07 03:58:55;;;;;;;6.50;6.00;;;;;;;14.84;100.00;99766.13;4935790;29;20229;-71
2021/08/07 04:01:26;;;;;;;6.97;6.07;;;;;;;14.88;100.00;99760.81;4921834;29;20642;-72
2021/08/07 04:03:58;;;;;;;9.83;5.87;;;;;;;14.80;100.00;99764.38;4936593;29;20183;-72
2021/08/07 04:06:29;;;;;;;6.20;5.50;;;;;;;14.79;100.00;99763.53;4936803;29;20609;-71
2021/08/07 04:09:01;;;;;;;5.10;4.60;;;;;;;14.62;100.00;99767.41;4952056;29;20697;-72
2021/08/07 04:11:31;;;;;;;6.37;4.73;;;;;;;14.80;100.00;99772.56;4936177;29;20262;-72
2021/08/07 04:14:04;;;;;;;5.90;5.40;;;;;;;14.80;100.00;99764.38;4921710;29;20183;-72
2021/08/07 04:16:30;;;;;;;5.63;4.53;;;;;;;14.77;100.00;99762.28;4951658;29;20218;-72
2021/08/07 04:19:01;;;;;;;5.20;4.70;;;;;;;14.75;100.00;99762.59;4951756;29;20588;-72
2021/08/07 04:21:26;;;;;;;5.37;4.87;;;;;;;14.60;100.00;99761.47;4948432;28;20228;-72
2021/08/07 04:23:52;;;;;;;6.00;5.40;;;;;;;14.81;100.00;99766.75;4916798;29;20597;-72
2021/08/07 04:26:20;;;;;;;5.73;5.23;;;;;;;14.87;100.00;99764.66;4948630;28;20219;-72
2021/08/07 04:28:48;;;;;;;5.83;5.30;;;;;;;14.96;100.00;99757.28;4951234;29;20215;-72
2021/08/07 04:31:16;;;;;;;6.13;5.53;;;;;;;14.94;100.00;99759.53;4951181;29;20731;-73
2021/08/07 04:33:42;;;;;;;7.90;5.87;;;;;;;15.09;100.00;99760.66;4951805;29;20187;-72
2021/08/07 04:36:13;;;;;;;9.17;6.80;;;;;;;14.82;100.00;99756.66;4963231;28;20214;-71
2021/08/07 04:38:42;;;;;;;5.87;5.37;;;;;;;15.15;100.00;99756.66;4951231;29;20211;-72
2021/08/07 04:41:09;;;;;;;5.77;5.27;;;;;;;15.11;100.00;99755.66;4969274;28;20222;-72
2021/08/07 04:43:38;;;;;;;5.30;4.80;;;;;;;15.15;100.00;99762.13;4924706;29;20186;-71
2021/08/07 04:46:04;;;;;;;5.57;4.90;;;;;;;15.20;100.00;99764.72;4956640;28;20226;-72
2021/08/07 04:48:30;;;;;;;10.17;5.27;;;;;;;15.31;100.00;99771.44;4939346;29;20211;-72
2021/08/07 04:51:00;;;;;;;5.53;5.03;;;;;;;15.44;100.00;99775.94;4963848;28;20705;-74
2021/08/07 04:53:27;;;;;;;6.40;4.87;;;;;;;15.57;100.00;99780.41;4955360;28;20183;-71
2021/08/07 04:55:59;;;;;;;5.03;4.63;;;;;;;15.61;100.00;99778.63;4946934;28;20697;-72
2021/08/07 04:58:25;;;;;;;5.43;5.03;;;;;;;15.54;100.00;99776.38;4954818;28;20193;-73
2021/08/07 05:00:51;;;;;;;4.80;4.40;;;;;;;15.57;100.00;99774.94;4960558;28;20270;-73
2021/08/07 05:03:16;;;;;;;5.00;4.60;;;;;;;15.86;100.00;99779.34;4939511;29;20249;-72
2021/08/07 05:05:44;;;;;;;4.40;4.00;;;;;;;15.92;100.00;99775.28;4940018;28;20223;-72
2021/08/07 05:08:12;;;;;;;5.60;4.30;;;;;;;16.04;100.00;99780.88;4951581;29;20262;-71
2021/08/07 05:10:42;;;;;;;4.30;3.90;;;;;;;16.30;100.00;99765.13;4954368;29;20223;-72
2021/08/07 05:13:09;;;;;;;5.07;4.30;;;;;;;16.22;100.00;99766.00;4924331;29;20783;-71
2021/08/07 05:15:35;;;;;;;4.60;4.20;;;;;;;16.37;100.00;99763.50;4954407;29;20305;-72
2021/08/07 05:18:03;;;;;;;5.20;4.23;;;;;;;16.48;100.00;99766.66;4938807;29;20676;-72
2021/08/07 05:20:29;;;;;;;4.57;4.27;;;;;;;16.56;100.00;99778.38;4953741;29;20266;-71
2021/08/07 05:22:56;;;;;;;5.17;4.43;;;;;;;16.69;100.00;99763.59;4955108;29;20195;-72
2021/08/07 05:25:25;;;;;;;4.93;4.43;;;;;;;16.78;100.00;99769.84;4954205;28;20242;-71
2021/08/07 05:27:54;;;;;;;7.95;4.72;;;;;;;16.90;100.00;99772.63;4939160;29;20210;-73
2021/08/07 05:30:22;;;;;;;4.97;4.57;;;;;;;17.09;100.00;99764.75;4938234;28;25673;-71
2021/08/07 05:32:50;;;;;;;4.70;4.40;;;;;;;17.17;100.00;99772.13;4954693;29;20225;-73
2021/08/07 05:35:18;;;;;;;5.90;4.85;;;;;;;17.04;100.00;99773.19;4953703;28;20187;-73
2021/08/07 05:37:44;;;;;;;5.93;5.20;;;;;;;17.15;100.00;99774.38;4939266;28;20191;-73
2021/08/07 05:40:12;;;;;;;5.55;5.05;;;;;;;17.31;100.00;99772.63;4922588;28;20202;-74
2021/08/07 05:42:40;;;;;;;5.85;5.07;;;;;;;17.64;100.00;99772.31;4939371;29;20178;-71
2021/08/07 05:45:09;;;;;;;7.38;4.97;;;;;;;17.59;100.00;99775.25;4954747;28;20194;-71
2021/08/07 05:47:35;;;;;;;5.15;4.65;;;;;;;17.77;100.00;99773.94;4970602;28;20214;-71
2021/08/07 05:50:04;;;;;;;4.82;4.00;;;;;;;17.82;100.00;99763.53;4953708;28;20215;-72
2021/08/07 05:52:30;;;;;;;4.40;4.00;;;;;;;18.11;100.00;99771.59;4950472;28;20286;-72
2021/08/07 05:55:00;;;;;;;6.05;4.40;;;;;;;18.13;100.00;99774.78;4970353;28;20194;-72
2021/08/07 05:57:29;;;;;;;4.65;3.90;;;;;;;18.29;100.00;99768.28;4954014;28;20222;-73
2021/08/07 05:59:56;;;;;;;4.88;4.00;;;;;;;18.48;100.00;99771.25;4954082;29;20234;-72
2021/08/07 06:02:24;;;;;;;4.63;3.70;;;;;;;18.58;100.00;99768.03;4964095;28;20306;-72
2021/08/07 06:04:54;;;;;;;3.72;3.33;;;;;;;18.61;100.00;99770.09;4969789;28;20183;-72
2021/08/07 06:07:24;;;;;;;5.50;3.50;;;;;;;18.63;100.00;99767.81;4953841;29;20281;-72
2021/08/07 06:09:53;;;;;;;3.60;3.30;;;;;;;18.89;100.00;99764.28;4953629;29;20223;-71
2021/08/07 06:12:19;;;;;;;3.97;3.40;;;;;;;19.18;100.00;99768.72;4961940;28;20270;-72
2021/08/07 06:14:44;;;;;;;3.13;2.80;;;;;;;19.20;100.00;99767.22;4955049;29;20179;-71
2021/08/07 06:17:15;;;;;;;3.10;2.80;;;;;;;19.61;100.00;99762.06;4974629;28;20223;-72
2021/08/07 06:19:41;;;;;;;2.95;2.75;;;;;;;19.57;100.00;99766.69;4930036;29;20746;-73
2021/08/07 06:22:07;;;;;;;4.70;2.70;;;;;;;19.19;100.00;99771.09;4959089;29;20219;-72
2021/08/07 06:24:38;;;;;;;2.75;2.50;;;;;;;19.27;100.00;99764.66;4953764;29;20234;-73
2021/08/07 06:27:05;;;;;;;2.78;2.30;;;;;;;19.41;100.00;99762.28;4954165;28;20810;-73
2021/08/07 06:29:31;;;;;;;2.95;2.65;;;;;;;19.32;100.00;99769.91;4921492;29;20223;-73
2021/08/07 06:31:57;;;;;;;3.95;2.20;;;;;;;19.36;100.00;99762.56;4938351;28;20266;-72
2021/08/07 06:34:23;;;;;;;2.38;2.13;;;;;;;19.15;100.00;99772.97;4949993;28;20266;-72
2021/08/07 06:36:49;;;;;;;2.65;2.33;;;;;;;19.17;100.00;99772.63;4937110;29;20223;-72
2021/08/07 06:39:15;;;;;;;2.47;2.20;;;;;;;19.46;100.00;99767.56;4937555;29;20681;-72
2021/08/07 06:41:41;;;;;;;2.45;2.25;;;;;;;19.69;100.00;99772.94;4952960;28;20226;-72
2021/08/07 06:44:19;;;;;;;3.97;2.30;;;;;;;19.82;100.00;99760.72;4929963;29;20180;-73
2021/08/07 06:46:47;;;;;;;3.30;2.30;;;;;;;19.90;100.00;99768.00;4951280;28;20584;-72
2021/08/07 06:49:15;;;;;;;2.38;2.17;;;;;;;20.20;100.00;99770.00;4952076;29;20210;-72
2021/08/07 06:51:46;;;;;;;3.40;2.20;;;;;;;20.23;100.00;99776.75;4934911;28;20216;-72
2021/08/07 06:54:12;;;;;;;2.33;2.13;;;;;;;20.01;100.00;99771.84;4951021;28;20190;-72
2021/08/07 06:56:38;;;;;;;2.78;1.92;;;;;;;20.29;100.00;99772.56;4938288;28;20801;-71
2021/08/07 06:59:04;;;;;;;3.10;2.13;;;;;;;20.18;100.00;99777.81;4966016;28;20369;-72
2021/08/07 07:01:30;;;;;;;2.83;2.20;;;;;;;20.27;100.00;99780.38;4963250;28;20771;-73
2021/08/07 07:03:58;;;;;;;2.58;2.00;;;;;;;20.49;100.00;99773.09;4952571;28;20210;-72
2021/08/07 07:06:24;;;;;;;4.20;2.03;;;;;;;20.67;100.00;99790.06;4952801;28;20227;-73
2021/08/07 07:08:50;;;;;;;2.47;1.95;;;;;;;20.68;100.00;99775.91;4936998;28;20211;-74
2021/08/07 07:11:17;;;;;;;4.30;2.00;;;;;;;20.81;100.00;99773.84;4948351;29;20713;-74
2021/08/07 07:13:45;;;;;;;3.45;1.90;;;;;;;20.82;100.00;99773.47;4968921;28;20731;-72
2021/08/07 07:16:11;;;;;;;3.88;1.75;;;;;;;21.16;100.00;99780.94;4937263;28;20226;-73
2021/08/07 07:18:39;;;;;;;2.60;1.80;;;;;;;20.92;100.00;99772.91;4936820;29;20194;-73
2021/08/07 07:21:05;;;;;;;2.10;1.70;;;;;;;20.79;100.00;99778.91;4952578;28;20262;-73
2021/08/07 07:23:31;;;;;;;2.33;1.70;;;;;;;21.22;100.00;99781.06;4931987;29;20212;-72
2021/08/07 07:25:57;;;;;;;2.97;1.80;;;;;;;21.24;100.00;99773.25;4933304;29;20215;-73
2021/08/07 07:28:23;;;;;;;3.03;1.98;;;;;;;21.04;100.00;99778.28;4940614;28;20655;-72
2021/08/07 07:30:49;;;;;;;1.70;1.48;;;;;;;20.96;100.00;99782.06;4936520;28;20225;-72
2021/08/07 07:33:19;;;;;;;2.75;1.67;;;;;;;20.83;100.00;99788.88;4952091;28;20182;-74
2021/08/07 07:35:45;;;;;;;3.38;1.73;;;;;;;21.39;100.00;99780.66;4921892;29;20728;-74
2021/08/07 07:38:13;;;;;;;2.10;1.45;;;;;;;21.29;100.00;99781.22;4960433;28;20559;-78
2021/08/07 07:40:40;;;;;;;2.20;1.63;;;;;;;21.28;100.00;99790.69;4954747;29;20226;-80
2021/08/07 07:43:09;;;;;;;3.80;1.70;;;;;;;21.32;100.00;99785.25;4969533;28;20182;-72
2021/08/07 07:45:35;;;;;;;2.35;1.67;;;;;;;21.54;100.00;99788.09;4936535;29;20250;-73
2021/08/07 07:48:03;;;;;;;4.63;1.73;;;;;;;21.61;100.00;99787.41;4966694;28;20191;-73
2021/08/07 07:50:29;;;;;;;2.53;1.92;;;;;;;21.84;100.00;99784.31;4965734;28;20223;-74
2021/08/07 07:53:01;;;;;;;2.70;1.50;;;;;;;22.20;100.00;99790.16;4921655;29;20178;-75
2021/08/07 07:55:28;;;;;;;1.33;1.17;;;;;;;22.29;100.00;99787.94;4952298;28;20218;-75
2021/08/07 07:57:59;;;;;;;2.25;1.55;;;;;;;21.99;100.00;99793.69;4936472;29;20554;-73
2021/08/07 08:00:26;;;;;;;1.92;1.42;;;;;;;21.98;100.00;99795.66;4950433;28;20696;-72
2021/08/07 08:02:55;;;;;;;2.70;1.40;;;;;;;21.48;100.00;99791.50;4919935;28;20193;-73
2021/08/07 08:05:31;;;;;;;1.70;1.40;;;;;;;21.33;100.00;99787.63;4964063;28;20225;-80
2021/08/07 08:07:59;;;;;;;2.67;1.52;;;;;;;21.26;100.00;99793.03;4921351;29;20269;-78
2021/08/07 08:10:27;;;;;;;1.60;1.40;;;;;;;21.33;100.00;99793.13;4952405;28;20225;-78
2021/08/07 08:12:55;;;;;;;1.48;1.38;;;;;;;20.89;100.00;99787.44;4952525;29;20193;-79
2021/08/07 08:15:26;;;;;;;2.25;1.60;;;;;;;21.09;100.00;99787.09;4936366;28;20175;-77
2021/08/07 08:17:51;;;;;;;3.08;1.55;;;;;;;21.09;100.00;99780.78;4906603;29;20282;-78
2021/08/07 08:20:18;;;;;;;1.60;1.45;;;;;;;21.18;100.00;99778.59;4919973;28;20203;-79
2021/08/07 08:22:43;;;;;;;3.08;1.42;;;;;;;20.87;100.00;99779.50;4970126;28;20202;-79
2021/08/07 08:25:10;;;;;;;3.20;1.65;;;;;;;20.74;100.00;99784.72;4967777;28;20187;-77
2021/08/07 08:27:44;;;;;;;1.80;1.70;;;;;;;20.77;100.00;99782.06;4953971;28;20622;-78
2021/08/07 08:30:10;;;;;;;2.95;1.70;;;;;;;20.60;100.00;99779.66;4953426;28;20287;-80
2021/08/07 08:32:40;;;;;;;1.85;1.65;;;;;;;20.96;100.00;99777.34;4952920;29;20257;-78
2021/08/07 08:35:10;;;;;;;1.73;1.60;;;;;;;21.18;100.00;99773.09;4947994;28;20310;-77
2021/08/07 08:37:36;;;;;;;2.83;2.10;;;;;;;21.30;100.00;99771.00;4936631;29;20609;-80
2021/08/07 08:40:03;;;;;;;2.15;1.80;;;;;;;21.30;100.00;99773.75;4952625;28;20238;-78
2021/08/07 08:42:31;;;;;;;3.58;2.10;;;;;;;21.75;100.00;99769.94;4937329;29;20214;-76
2021/08/07 08:44:59;;;;;;;2.85;1.98;;;;;;;22.01;100.00;99776.34;4936218;29;20188;-77
2021/08/07 08:47:25;;;;;;;3.45;2.10;;;;;;;22.01;100.00;99770.81;4952483;28;20226;-78
2021/08/07 08:49:56;;;;;;;3.50;2.17;;;;;;;22.39;100.00;99765.97;4952638;29;20218;-76
2021/08/07 08:52:25;;;;;;;2.40;2.17;;;;;;;21.97;100.00;99771.13;4937574;29;20243;-79
2021/08/07 08:54:54;;;;;;;3.22;2.50;;;;;;;22.07;100.00;99772.13;4922119;29;20275;-78
2021/08/07 08:57:22;;;;;;;2.60;1.90;;;;;;;22.26;100.00;99769.31;4954102;28;20259;-78
2021/08/07 08:59:51;;;;;;;2.83;1.70;;;;;;;22.25;100.00;99775.19;4951464;29;20209;-76
2021/08/07 09:02:19;;;;;;;1.70;1.60;;;;;;;21.83;100.00;99773.63;4936704;29;20227;-76
2021/08/07 09:04:46;;;;;;;2.05;1.75;;;;;;;22.11;100.00;99770.19;4962154;28;20182;-79
2021/08/07 09:07:16;;;;;;;2.15;1.92;;;;;;;22.31;100.00;99766.22;4945621;28;20225;-76
2021/08/07 09:09:44;;;;;;;2.70;1.77;;;;;;;22.21;100.00;99758.53;4946153;29;20671;-75
2021/08/07 09:12:14;;;;;;;2.47;1.73;;;;;;;22.25;100.00;99759.41;4939706;28;20397;-80
2021/08/07 09:14:44;;;;;;;1.90;1.70;;;;;;;22.04;100.00;99753.47;4946010;29;20278;-77
2021/08/07 09:17:21;;;;;;;2.75;1.88;;;;;;;21.88;100.00;99759.50;4951646;29;20261;-79
2021/08/07 09:19:58;;;;;;;2.92;1.88;;;;;;;21.53;100.00;99758.84;4908036;29;20230;-77
2021/08/07 09:22:33;;;;;;;2.20;2.00;;;;;;;21.48;100.00;99761.09;4937050;28;20230;-78
2021/08/07 09:25:07;;;;;;;2.72;1.90;;;;;;;21.24;100.00;99759.44;4949329;28;20197;-77
2021/08/07 09:27:42;;;;;;;3.10;1.90;;;;;;;21.37;100.00;99752.59;4955798;28;20229;-80
2021/08/07 09:30:18;;;;;;;2.20;2.00;;;;;;;21.74;100.00;99754.53;4941159;28;20715;-77
2021/08/07 09:32:58;;;;;;;1.90;1.80;;;;;;;22.56;100.00;99756.31;4960021;28;20877;-77
2021/08/07 09:35:43;;;;;;;2.25;2.00;;;;;;;22.83;100.00;99753.97;4965020;28;20426;-80
2021/08/07 09:38:13;;;;;;;1.98;1.83;;;;;;;23.08;100.00;99732.97;4958311;29;20187;-77
2021/08/07 09:41:06;;;;;;;2.25;1.55;;;;;;;23.35;94.84;99737.25;4964707;28;20245;-79
2021/08/07 09:44:00;;;;;;;2.30;1.63;;;;;;;23.66;86.33;99730.16;4956316;29;20191;-79
2021/08/07 09:46:30;;;;;;;1.50;1.40;;;;;;;24.40;91.93;99726.88;4958841;28;20717;-75
2021/08/07 09:49:05;;;;;;;0.98;0.88;;;;;;;23.99;77.37;99724.50;4939144;29;20214;-75
2021/08/07 09:51:35;;;;;;;1.77;1.10;;;;;;;24.61;79.97;99719.47;4932518;29;20306;-74
2021/08/07 09:54:15;;;;;;;1.50;1.40;;;;;;;24.64;85.41;99724.25;4924627;29;20241;-73
2021/08/07 09:56:54;;;;;;;1.25;1.15;;;;;;;24.36;79.28;99729.63;4953257;28;20230;-72
2021/08/07 09:59:26;;;;;;;2.28;1.10;;;;;;;24.73;85.24;99727.50;4923625;29;20213;-73
2021/08/07 10:01:56;;;;;;;1.33;1.00;;;;;;;24.55;80.75;99717.44;4937654;29;20241;-75
2021/08/07 10:04:25;;;;;;;1.30;1.10;;;;;;;24.32;82.42;99718.84;4938887;29;20183;-74
2021/08/07 10:07:07;;;;;;;1.10;1.00;;;;;;;24.03;86.55;99719.81;4952895;28;20209;-73
2021/08/07 10:09:34;;;;;;;2.53;1.35;;;;;;;24.17;90.30;99717.13;4920488;28;20222;-74
2021/08/07 10:12:13;;;;;;;1.25;1.15;;;;;;;23.89;92.51;99708.56;4961319;28;20258;-74
2021/08/07 10:14:43;;;;;;;2.47;1.10;;;;;;;23.35;85.54;99709.53;4924375;29;20665;-71
2021/08/07 10:17:10;;;;;;;1.50;1.02;;;;;;;23.59;90.61;99707.88;4920621;29;20306;-75
2021/08/07 10:19:38;;;;;;;1.58;1.20;;;;;;;23.47;91.01;99698.19;4950720;28;20213;-76
2021/08/07 10:22:08;;;;;;;1.30;1.20;;;;;;;23.13;89.67;99699.41;4956351;28;20247;-77
2021/08/07 10:24:43;;;;;;;1.17;1.00;;;;;;;22.81;93.24;99703.69;4924809;28;20197;-79
2021/08/07 10:27:09;;;;;;;1.25;1.08;;;;;;;22.75;93.30;99698.06;4937979;29;20219;-77
2021/08/07 10:29:40;;;;;;;1.58;1.13;;;;;;;22.78;92.34;99696.16;4922503;29;20216;-77
2021/08/07 10:32:11;;;;;;;1.27;1.10;;;;;;;23.69;89.22;99687.75;4937699;28;20221;-77
2021/08/07 10:34:37;;;;;;;0.80;0.80;;;;;;;23.89;82.33;99686.34;4938684;28;20194;-76
2021/08/07 10:37:05;;;;;;;1.88;1.17;;;;;;;24.42;81.75;99685.63;4933286;28;20237;-75
2021/08/07 10:39:32;;;;;;;2.10;1.10;;;;;;;24.51;82.90;99686.88;4953432;28;20242;-77
2021/08/07 10:41:59;;;;;;;2.55;1.58;;;;;;;24.46;81.69;99678.09;4953148;28;20222;-73
2021/08/07 10:44:29;;;;;;;2.28;0.77;;;;;;;24.41;79.83;99673.72;4953874;28;20186;-75
2021/08/07 10:46:55;;;;;;;1.15;0.90;;;;;;;24.89;80.38;99677.94;4953366;28;20227;-75
2021/08/07 10:49:41;;;;;;;1.10;0.90;;;;;;;24.87;77.86;99683.09;4928321;28;20233;-73
2021/08/07 10:52:22;;;;;;;1.70;1.02;;;;;;;24.89;79.07;99677.94;4952690;29;20257;-73
2021/08/07 10:54:51;;;;;;;2.05;1.23;;;;;;;24.81;72.01;99668.75;4956971;29;20281;-77
2021/08/07 10:57:40;;;;;;;1.73;0.90;;;;;;;24.81;76.92;99667.97;4953815;29;20233;-79
2021/08/07 11:00:18;;;;;;;2.33;0.80;;;;;;;24.40;79.39;99669.34;4946617;28;20285;-77
2021/08/07 11:02:49;;;;;;;1.40;1.00;;;;;;;24.50;77.41;99667.81;4956218;28;20732;-74
2021/08/07 11:05:17;;;;;;;1.15;0.90;;;;;;;24.11;72.20;99669.50;4952520;28;20261;-73
2021/08/07 11:07:48;;;;;;;1.88;0.90;;;;;;;23.87;77.90;99669.28;4937238;29;20246;-74
2021/08/07 11:10:21;;;;;;;1.25;0.80;;;;;;;24.22;77.40;99655.69;4946203;29;20211;-73
2021/08/07 11:12:46;;;;;;;0.93;0.85;;;;;;;24.33;73.12;99656.59;4967567;28;20249;-73
2021/08/07 11:15:15;;;;;;;1.60;0.85;;;;;;;24.49;77.21;99664.25;4953614;28;20289;-73
2021/08/07 11:17:42;;;;;;;1.90;0.90;;;;;;;24.73;74.65;99666.34;4936345;29;20186;-72
2021/08/07 11:20:13;;;;;;;1.65;0.85;;;;;;;24.24;75.86;99670.78;4935113;28;20203;-75
2021/08/07 11:22:40;;;;;;;0.68;0.68;;;;;;;24.31;78.38;99675.63;4924306;29;20226;-74
2021/08/07 11:25:14;;;;;;;2.88;1.17;;;;;;;24.33;79.96;99668.50;4946146;29;20282;-72
2021/08/07 11:27:45;;;;;;;3.50;1.40;;;;;;;23.89;92.12;99658.59;4955012;29;20230;-71
2021/08/07 11:30:14;;;;;;;3.63;1.30;;;;;;;22.88;100.00;99670.56;4961433;28;20220;-72
2021/08/07 11:32:43;;;;;;;2.95;1.30;;;;;;;22.42;100.00;99681.38;4958721;28;20681;-76
2021/08/07 11:35:13;;;;;;;3.60;1.60;;;;;;;21.85;100.00;99693.84;4952040;28;20186;-73
2021/08/07 11:37:39;;;;;;;8.50;2.67;;;;;;;20.87;100.00;99704.16;4966375;28;20193;-70
2021/08/07 11:40:14;;;;;;;3.85;1.60;;;;;;;20.29;100.00;99663.03;4903692;28;20274;-70